createdAt,value
2023-05-10T00:00:22.681Z,100858.81
2023-05-10T00:03:14.239Z,100848.84
2023-05-10T00:05:47.066Z,100851.63
2023-05-10T00:11:23.166Z,100843.03
2023-05-10T00:13:55.750Z,100843.09
2023-05-10T00:16:28.864Z,100841.59
2023-05-10T00:19:06.149Z,100838.53
2023-05-10T00:21:40.668Z,100844.09
2023-05-10T00:24:16.091Z,100835.19
2023-05-10T00:26:50.561Z,100831.97
2023-05-10T00:29:23.777Z,100823.84
2023-05-10T00:31:56.743Z,100818.69
2023-05-10T00:34:29.192Z,100821.44
2023-05-10T00:37:03.347Z,100821.50
2023-05-10T00:39:42.415Z,100819.00
2023-05-10T00:42:17.847Z,100815.69
2023-05-10T00:44:51.220Z,100820.41
2023-05-10T00:47:24.643Z,100812.53
2023-05-10T00:49:57.709Z,100813.53
2023-05-10T00:52:33.346Z,100818.28
2023-05-10T00:55:11.333Z,100813.44
2023-05-10T00:57:46.670Z,100807.91
2023-05-10T01:00:20.291Z,100811.47
2023-05-10T01:02:53.577Z,100801.38
2023-05-10T01:05:26.893Z,100801.88
2023-05-10T01:08:04.315Z,100801.38
2023-05-10T01:10:40.500Z,100801.97
2023-05-10T01:13:14.671Z,100793.19
2023-05-10T01:15:48.145Z,100790.66
2023-05-10T01:18:26.829Z,100789.88
2023-05-10T01:21:29.856Z,100782.63
2023-05-10T01:24:24.448Z,100786.50
2023-05-10T01:27:27.079Z,100783.31
2023-05-10T01:30:29.472Z,100793.59
2023-05-10T01:33:20.594Z,100788.47
2023-05-10T01:36:11.195Z,100787.28
2023-05-10T01:38:54.528Z,100783.75
2023-05-10T01:41:33.743Z,100779.38
2023-05-10T01:44:23.205Z,100783.94
2023-05-10T01:47:23.511Z,100775.00
2023-05-10T01:50:14.112Z,100779.91
2023-05-10T01:53:00.155Z,100778.22
2023-05-10T01:55:51.516Z,100773.19
2023-05-10T01:58:39.807Z,100776.22
2023-05-10T02:01:19.544Z,100768.66
2023-05-10T02:04:04.712Z,100780.91
2023-05-10T02:06:55.055Z,100772.00
2023-05-10T02:09:32.717Z,100771.69
2023-05-10T02:12:08.765Z,100767.28
2023-05-10T02:14:43.724Z,100773.84
2023-05-10T02:17:17.591Z,100767.47
2023-05-10T02:19:52.921Z,100770.50
2023-05-10T02:22:35.197Z,100764.63
2023-05-10T02:25:10.030Z,100769.31
2023-05-10T02:27:45.666Z,100760.91
2023-05-10T02:30:19.780Z,100764.94
2023-05-10T02:32:55.738Z,100758.91
2023-05-10T02:35:32.074Z,100759.56
2023-05-10T02:38:08.854Z,100766.44
2023-05-10T02:40:48.626Z,100759.38
2023-05-10T02:43:33.344Z,100758.91
2023-05-10T02:46:08.134Z,100763.59
2023-05-10T02:48:56.451Z,100758.38
2023-05-10T02:51:33.116Z,100760.06
2023-05-10T02:54:15.179Z,100762.91
2023-05-10T02:56:55.154Z,100762.91
2023-05-10T02:59:28.284Z,100763.41
2023-05-10T03:02:01.844Z,100754.69
2023-05-10T03:04:34.882Z,100759.34
2023-05-10T03:07:08.517Z,100770.94
2023-05-10T03:09:44.623Z,100764.25
2023-05-10T03:12:26.369Z,100761.72
2023-05-10T03:15:08.484Z,100770.09
2023-05-10T03:17:53.288Z,100756.31
2023-05-10T03:20:31.090Z,100753.28
2023-05-10T03:23:35.600Z,100756.31
2023-05-10T03:26:23.204Z,100758.16
2023-05-10T03:29:03.689Z,100756.31
2023-05-10T03:31:39.486Z,100750.53
2023-05-10T03:34:13.432Z,100745.50
2023-05-10T03:36:46.434Z,100755.28
2023-05-10T03:39:19.285Z,100755.06
2023-05-10T03:41:59.488Z,100750.84
2023-05-10T03:44:35.280Z,100755.22
2023-05-10T03:47:07.730Z,100750.34
2023-05-10T03:49:40.269Z,100746.66
2023-05-10T03:52:12.469Z,100743.00
2023-05-10T03:54:45.003Z,100744.81
2023-05-10T03:57:19.810Z,100743.00
2023-05-10T03:59:52.224Z,100744.66
2023-05-10T04:02:24.236Z,100744.34
2023-05-10T04:04:56.941Z,100746.03
2023-05-10T04:07:29.034Z,100752.94
2023-05-10T04:10:01.452Z,100747.41
2023-05-10T04:12:36.331Z,100738.28
2023-05-10T04:15:09.930Z,100741.88
2023-05-10T04:17:42.160Z,100738.50
2023-05-10T04:20:16.447Z,100741.22
2023-05-10T04:22:48.728Z,100737.34
2023-05-10T04:25:21.336Z,100743.91
2023-05-10T04:27:56.702Z,100740.06
2023-05-10T04:30:30.837Z,100741.91
2023-05-10T04:33:03.189Z,100732.16
2023-05-10T04:35:35.670Z,100737.03
2023-05-10T04:38:07.680Z,100742.59
2023-05-10T04:40:40.153Z,100733.84
2023-05-10T04:43:15.050Z,100731.16
2023-05-10T04:45:47.631Z,100727.44
2023-05-10T04:48:19.872Z,100727.09
2023-05-10T04:50:52.286Z,100722.56
2023-05-10T04:53:24.320Z,100723.03
2023-05-10T04:55:56.898Z,100718.50
2023-05-10T04:58:31.775Z,100726.53
2023-05-10T05:01:12.167Z,100726.66
2023-05-10T05:03:44.691Z,100731.84
2023-05-10T05:06:17.409Z,100727.94
2023-05-10T05:08:50.807Z,100721.34
2023-05-10T05:11:23.752Z,100728.56
2023-05-10T05:14:00.469Z,100732.72
2023-05-10T05:16:35.611Z,100727.59
2023-05-10T05:19:08.139Z,100715.38
2023-05-10T05:21:40.852Z,100730.63
2023-05-10T05:24:14.218Z,100720.91
2023-05-10T05:26:46.953Z,100729.88
2023-05-10T05:29:21.770Z,100718.88
2023-05-10T05:31:55.634Z,100713.53
2023-05-10T05:34:28.429Z,100707.56
2023-05-10T05:37:01.052Z,100710.53
2023-05-10T05:39:35.176Z,100705.53
2023-05-10T05:42:08.040Z,100715.56
2023-05-10T05:44:43.856Z,100712.69
2023-05-10T05:47:26.654Z,100711.84
2023-05-10T05:49:58.929Z,100704.19
2023-05-10T05:52:31.727Z,100700.03
2023-05-10T05:55:04.192Z,100710.91
2023-05-10T05:57:36.950Z,100698.09
2023-05-10T06:00:13.329Z,100700.75
2023-05-10T06:02:46.144Z,100707.97
2023-05-10T06:05:18.635Z,100712.88
2023-05-10T06:07:51.491Z,100709.28
2023-05-10T06:10:23.728Z,100710.97
2023-05-10T06:12:56.606Z,100716.25
2023-05-10T06:15:31.778Z,100713.06
2023-05-10T06:18:04.504Z,100705.34
2023-05-10T06:20:37.003Z,100715.22
2023-05-10T06:23:09.553Z,100713.13
2023-05-10T06:25:42.097Z,100707.25
2023-05-10T06:28:14.614Z,100711.06
2023-05-10T06:31:17.706Z,100711.44
2023-05-10T06:33:50.458Z,100708.72
2023-05-10T06:36:23.411Z,100713.66
2023-05-10T06:38:58.429Z,100709.97
2023-05-10T06:41:30.695Z,100703.28
2023-05-10T06:44:03.434Z,100708.94
2023-05-10T06:46:39.070Z,100703.59
2023-05-10T06:49:13.674Z,100707.06
2023-05-10T06:51:49.831Z,100711.16
2023-05-10T06:54:24.835Z,100704.97
2023-05-10T06:56:57.514Z,100704.34
2023-05-10T06:59:30.550Z,100706.03
2023-05-10T07:02:05.990Z,100706.91
2023-05-10T07:04:39.107Z,100711.72
2023-05-10T07:07:11.639Z,100712.16
2023-05-10T07:09:45.357Z,100705.09
2023-05-10T07:12:18.251Z,100700.31
2023-05-10T07:14:51.195Z,100702.00
2023-05-10T07:17:26.621Z,100701.50
2023-05-10T07:19:59.398Z,100689.81
2023-05-10T07:22:31.790Z,100685.88
2023-05-10T07:25:04.810Z,100685.78
2023-05-10T07:27:37.792Z,100691.00
2023-05-10T07:30:19.841Z,100694.25
2023-05-10T07:33:09.920Z,100687.50
2023-05-10T07:35:42.837Z,100684.13
2023-05-10T07:38:15.392Z,100689.25
2023-05-10T07:40:48.954Z,100696.34
2023-05-10T07:43:21.234Z,100681.59
2023-05-10T07:45:56.257Z,100685.78
2023-05-10T07:48:31.708Z,100681.91
2023-05-10T07:51:04.399Z,100695.16
2023-05-10T07:53:37.108Z,100681.78
2023-05-10T07:56:28.633Z,100684.03
2023-05-10T07:59:01.200Z,100676.06
2023-05-10T08:01:36.184Z,100688.50
2023-05-10T08:04:11.161Z,100688.88
2023-05-10T08:06:44.278Z,100699.00
2023-05-10T08:09:16.667Z,100704.16
2023-05-10T08:11:49.352Z,100694.03
2023-05-10T08:14:21.662Z,100690.00
2023-05-10T08:16:54.352Z,100685.94
2023-05-10T08:19:29.232Z,100687.28
2023-05-10T08:22:02.035Z,100695.41
2023-05-10T08:24:36.307Z,100686.19
2023-05-10T08:27:09.352Z,100690.19
2023-05-10T08:29:50.007Z,100683.13
2023-05-10T08:32:23.549Z,100687.16
2023-05-10T08:34:59.545Z,100691.28
2023-05-10T08:37:35.106Z,100698.84
2023-05-10T08:40:08.026Z,100688.34
2023-05-10T08:42:44.302Z,100690.97
2023-05-10T08:45:18.225Z,100685.59
2023-05-10T08:47:52.478Z,100682.34
2023-05-10T08:50:28.466Z,100692.22
2023-05-10T08:53:04.915Z,100700.72
2023-05-10T08:55:38.350Z,100698.78
2023-05-10T08:58:11.557Z,100705.53
2023-05-10T09:00:44.658Z,100700.66
2023-05-10T09:03:18.068Z,100710.84
2023-05-10T09:05:53.751Z,100699.88
2023-05-10T09:08:29.030Z,100698.16
2023-05-10T09:11:06.924Z,100701.13
2023-05-10T09:13:42.052Z,100697.69
2023-05-10T09:16:21.600Z,100696.75
2023-05-10T09:18:54.637Z,100701.13
2023-05-10T09:21:31.228Z,100700.09
2023-05-10T09:24:09.154Z,100706.22
2023-05-10T09:26:52.005Z,100706.25
2023-05-10T09:29:24.622Z,100706.78
2023-05-10T09:31:58.258Z,100708.72
2023-05-10T09:34:36.439Z,100700.56
2023-05-10T09:37:10.883Z,100705.25
2023-05-10T09:39:43.487Z,100706.91
2023-05-10T09:42:17.064Z,100696.78
2023-05-10T09:44:50.520Z,100706.41
2023-05-10T09:47:22.272Z,100699.94
2023-05-10T09:50:05.959Z,100695.84
2023-05-10T09:52:59.730Z,100697.41
2023-05-10T09:55:46.174Z,100702.56
2023-05-10T09:58:18.387Z,100710.09
2023-05-10T10:00:53.690Z,100707.88
2023-05-10T10:03:26.283Z,100696.03
2023-05-10T10:05:59.593Z,100701.41
2023-05-10T10:08:34.232Z,100694.44
2023-05-10T10:11:07.094Z,100697.56
2023-05-10T10:13:39.357Z,100698.19
2023-05-10T10:16:13.804Z,100695.78
2023-05-10T10:18:46.942Z,100699.88
2023-05-10T10:21:19.987Z,100691.91
2023-05-10T10:23:56.010Z,100691.94
2023-05-10T10:26:29.115Z,100691.91
2023-05-10T10:29:14.132Z,100680.53
2023-05-10T10:31:52.132Z,100685.53
2023-05-10T10:34:31.968Z,100692.13
2023-05-10T10:37:09.525Z,100688.91
2023-05-10T10:39:44.135Z,100682.00
2023-05-10T10:42:16.293Z,100693.88
2023-05-10T10:44:48.109Z,100701.03
2023-05-10T10:47:31.349Z,100697.44
2023-05-10T10:50:12.150Z,100692.13
2023-05-10T10:52:45.731Z,100692.72
2023-05-10T10:55:26.324Z,100690.75
2023-05-10T10:58:02.023Z,100684.47
2023-05-10T11:00:36.462Z,100692.28
2023-05-10T11:03:12.020Z,100696.84
2023-05-10T11:05:46.305Z,100693.13
2023-05-10T11:08:21.458Z,100695.97
2023-05-10T11:11:13.544Z,100694.22
2023-05-10T11:13:51.830Z,100691.25
2023-05-10T11:16:25.934Z,100691.63
2023-05-10T11:19:07.019Z,100686.59
2023-05-10T11:21:50.496Z,100677.75
2023-05-10T11:24:24.385Z,100679.88
2023-05-10T11:26:58.602Z,100691.00
2023-05-10T11:29:32.668Z,100668.44
2023-05-10T11:32:06.126Z,100677.53
2023-05-10T11:34:39.306Z,100679.59
2023-05-10T11:37:10.576Z,100676.13
2023-05-10T11:39:42.304Z,100670.16
2023-05-10T11:42:16.862Z,100673.59
2023-05-10T11:44:51.357Z,100674.53
2023-05-10T11:47:22.993Z,100678.91
2023-05-10T11:49:56.693Z,100692.19
2023-05-10T11:52:28.583Z,100679.69
2023-05-10T11:55:00.586Z,100672.19
2023-05-10T11:57:35.562Z,100678.91
2023-05-10T12:00:08.366Z,100691.47
2023-05-10T12:02:40.798Z,100683.63
2023-05-10T12:05:15.042Z,100684.78
2023-05-10T12:07:47.566Z,100688.09
2023-05-10T12:10:20.630Z,100692.53
2023-05-10T12:12:57.171Z,100682.69
2023-05-10T12:15:30.153Z,100687.88
2023-05-10T12:18:04.244Z,100678.06
2023-05-10T12:20:37.236Z,100693.16
2023-05-10T12:23:10.199Z,100689.69
2023-05-10T12:25:49.396Z,100687.78
2023-05-10T12:28:24.954Z,100693.41
2023-05-10T12:30:58.593Z,100695.09
2023-05-10T12:33:31.690Z,100694.53
2023-05-10T12:36:04.438Z,100685.28
2023-05-10T12:38:39.836Z,100699.63
2023-05-10T12:41:13.992Z,100696.66
2023-05-10T12:43:49.834Z,100695.50
2023-05-10T12:46:23.022Z,100694.75
2023-05-10T12:49:07.549Z,100696.81
2023-05-10T12:51:41.881Z,100689.00
2023-05-10T12:54:14.051Z,100692.69
2023-05-10T12:56:47.838Z,100683.03
2023-05-10T12:59:22.963Z,100693.53
2023-05-10T13:01:55.723Z,100699.00
2023-05-10T13:04:28.102Z,100695.84
2023-05-10T13:07:01.435Z,100697.75
2023-05-10T13:09:33.994Z,100694.50
2023-05-10T13:12:07.688Z,100691.69
2023-05-10T13:14:45.082Z,100685.78
2023-05-10T13:17:17.678Z,100692.50
2023-05-10T13:19:50.080Z,100688.38
2023-05-10T13:22:32.493Z,100687.19
2023-05-10T13:25:20.715Z,100676.72
2023-05-10T13:27:53.835Z,100687.53
2023-05-10T13:30:30.319Z,100670.50
2023-05-10T13:33:03.559Z,100670.09
2023-05-10T13:35:36.355Z,100668.00
2023-05-10T13:38:09.634Z,100669.22
2023-05-10T13:40:42.536Z,100669.00
2023-05-10T13:43:16.800Z,100677.84
2023-05-10T13:45:52.398Z,100681.78
2023-05-10T13:48:25.879Z,100678.66
2023-05-10T13:50:58.558Z,100675.22
2023-05-10T13:53:31.679Z,100670.22
2023-05-10T13:56:04.322Z,100669.66
2023-05-10T13:58:37.916Z,100669.72
2023-05-10T14:01:13.658Z,100672.72
2023-05-10T14:03:46.921Z,100664.50
2023-05-10T14:06:19.680Z,100683.88
2023-05-10T14:08:52.899Z,100672.31
2023-05-10T14:11:25.922Z,100681.91
2023-05-10T14:13:59.118Z,100680.22
2023-05-10T14:16:34.733Z,100665.16
2023-05-10T14:19:07.901Z,100657.56
2023-05-10T14:21:40.846Z,100661.97
2023-05-10T14:24:14.119Z,100667.00
2023-05-10T14:26:46.835Z,100674.06
2023-05-10T14:33:53.843Z,100671.56
2023-05-10T14:36:26.309Z,100657.22
2023-05-10T14:38:58.575Z,100673.75
2023-05-10T14:45:00.060Z,100663.63
2023-05-10T14:48:38.607Z,100659.69
2023-05-10T14:51:23.439Z,100663.66
2023-05-10T15:02:33.299Z,100666.53
2023-05-10T15:05:07.354Z,100659.44
2023-05-10T15:07:46.562Z,100657.19
2023-05-10T15:10:20.112Z,100663.53
2023-05-10T15:12:52.633Z,100664.84
2023-05-10T15:15:25.512Z,100671.25
2023-05-10T15:17:58.343Z,100663.59
2023-05-10T15:20:30.883Z,100676.25
2023-05-10T15:23:06.228Z,100669.84
2023-05-10T15:25:41.673Z,100681.22
2023-05-10T15:28:14.520Z,100677.28
2023-05-10T15:30:46.767Z,100674.38
2023-05-10T15:36:04.604Z,100673.38
2023-05-10T15:38:51.515Z,100666.91
2023-05-10T15:41:24.159Z,100676.25
2023-05-10T15:43:57.038Z,100673.38
2023-05-10T15:46:29.495Z,100669.00
2023-05-10T15:49:03.018Z,100662.78
2023-05-10T15:51:36.659Z,100671.19
2023-05-10T15:54:13.793Z,100675.31
2023-05-10T15:56:46.082Z,100674.75
2023-05-10T15:59:18.643Z,100678.81
2023-05-10T16:01:51.451Z,100688.44
2023-05-10T16:04:24.439Z,100677.44
2023-05-10T16:06:57.889Z,100677.03
2023-05-10T16:09:33.445Z,100682.59
2023-05-10T16:12:07.368Z,100678.53
2023-05-10T16:14:40.558Z,100688.88
2023-05-10T16:17:13.193Z,100682.81
2023-05-10T16:19:46.007Z,100684.72
2023-05-10T16:22:18.480Z,100699.63
2023-05-10T16:24:54.449Z,100694.06
2023-05-10T16:27:29.168Z,100705.03
2023-05-10T16:30:01.812Z,100697.91
2023-05-10T16:32:34.584Z,100714.09
2023-05-10T16:35:08.919Z,100719.56
2023-05-10T16:37:42.276Z,100720.75
2023-05-10T16:43:53.279Z,100727.13
2023-05-10T16:46:26.724Z,100729.00
2023-05-10T16:49:03.320Z,100732.13
2023-05-10T16:51:36.098Z,100747.19
2023-05-10T16:54:08.537Z,100745.41
2023-05-10T16:56:44.320Z,100739.53
2023-05-10T16:59:18.726Z,100747.66
2023-05-10T17:01:53.662Z,100748.97
2023-05-10T17:04:25.918Z,100752.59
2023-05-10T17:06:59.891Z,100755.53
2023-05-10T17:09:32.087Z,100755.97
2023-05-10T17:12:07.475Z,100748.75
2023-05-10T17:14:41.452Z,100759.78
2023-05-10T17:17:17.163Z,100761.91
2023-05-10T17:19:49.418Z,100759.59
2023-05-10T17:22:22.374Z,100766.53
2023-05-10T17:24:58.473Z,100772.47
2023-05-10T17:27:35.082Z,100770.06
2023-05-10T17:30:07.845Z,100778.66
2023-05-10T17:32:40.743Z,100782.44
2023-05-10T17:35:14.402Z,100778.03
2023-05-10T17:37:47.753Z,100786.44
2023-05-10T17:40:20.282Z,100787.41
2023-05-10T17:42:55.974Z,100795.19
2023-05-10T17:45:28.126Z,100791.63
2023-05-10T17:48:00.974Z,100794.19
2023-05-10T17:50:33.573Z,100799.91
2023-05-10T17:53:07.638Z,100797.53
2023-05-10T17:55:40.120Z,100804.91
2023-05-10T17:58:16.171Z,100800.34
2023-05-10T18:00:48.396Z,100806.19
2023-05-10T18:03:21.200Z,100806.59
2023-05-10T18:05:54.421Z,100810.53
2023-05-10T18:08:29.006Z,100806.94
2023-05-10T18:11:01.559Z,100811.13
2023-05-10T18:13:37.117Z,100825.41
2023-05-10T18:16:09.440Z,100830.22
2023-05-10T18:18:43.009Z,100828.78
2023-05-10T18:21:15.502Z,100818.13
2023-05-10T18:23:50.715Z,100834.34
2023-05-10T18:26:22.841Z,100831.63
2023-05-10T18:29:01.275Z,100841.22
2023-05-10T18:31:34.441Z,100840.63
2023-05-10T18:34:06.909Z,100853.78
2023-05-10T18:36:39.123Z,100851.28
2023-05-10T18:41:59.563Z,100856.72
2023-05-10T18:44:52.341Z,100858.81
2023-05-10T18:47:24.250Z,100860.47
2023-05-10T18:49:57.760Z,100859.84
2023-05-10T18:52:30.328Z,100878.50
2023-05-10T18:55:03.137Z,100877.63
2023-05-10T18:57:41.784Z,100874.50
2023-05-10T19:00:19.883Z,100881.41
2023-05-10T19:02:54.174Z,100883.72
2023-05-10T19:05:30.490Z,100890.81
2023-05-10T19:08:03.031Z,100886.19
2023-05-10T19:10:37.165Z,100893.50
2023-05-10T19:13:10.122Z,100896.84
2023-05-10T19:15:45.549Z,100898.69
2023-05-10T19:18:21.204Z,100900.34
2023-05-10T19:20:53.878Z,100895.94
2023-05-10T19:23:30.432Z,100905.69
2023-05-10T19:26:06.292Z,100904.66
2023-05-10T19:28:38.752Z,100906.72
2023-05-10T19:31:14.398Z,100910.34
2023-05-10T19:33:46.978Z,100912.59
2023-05-10T19:36:19.799Z,100914.03
2023-05-10T19:38:53.841Z,100905.69
2023-05-10T19:41:26.754Z,100908.16
2023-05-10T19:43:59.675Z,100914.38
2023-05-10T19:46:35.400Z,100907.06
2023-05-10T19:49:28.807Z,100921.22
2023-05-10T19:52:10.587Z,100921.00
2023-05-10T19:54:42.963Z,100922.66
2023-05-10T20:00:14.529Z,100915.72
2023-05-10T20:02:55.570Z,100928.84
2023-05-10T20:05:31.453Z,100926.69
2023-05-10T20:08:05.044Z,100934.63
2023-05-10T20:10:43.765Z,100933.31
2023-05-10T20:13:23.555Z,100940.41
2023-05-10T20:16:02.940Z,100934.31
2023-05-10T20:18:41.472Z,100939.50
2023-05-10T20:21:14.771Z,100942.75
2023-05-10T20:23:59.860Z,100946.63
2023-05-10T20:26:45.598Z,100941.34
2023-05-10T20:29:33.463Z,100938.16
2023-05-10T20:32:12.773Z,100946.88
2023-05-10T20:34:57.870Z,100939.34
2023-05-10T20:37:31.144Z,100943.50
2023-05-10T20:40:07.067Z,100952.16
2023-05-10T20:42:47.602Z,100948.91
2023-05-10T20:45:38.481Z,100946.38
2023-05-10T20:48:14.166Z,100945.72
2023-05-10T20:50:52.359Z,100948.19
2023-05-10T20:53:25.288Z,100948.38
2023-05-10T20:56:05.212Z,100947.91
2023-05-10T20:58:39.827Z,100949.34
2023-05-10T21:01:12.781Z,100953.00
2023-05-10T21:03:45.394Z,100955.47
2023-05-10T21:06:20.972Z,100949.13
2023-05-10T21:08:52.880Z,100951.09
2023-05-10T21:11:26.292Z,100958.59
2023-05-10T21:13:59.673Z,100961.31
2023-05-10T21:16:33.899Z,100955.44
2023-05-10T21:19:07.846Z,100955.63
2023-05-10T21:21:43.687Z,100950.59
2023-05-10T21:24:17.580Z,100960.75
2023-05-10T21:26:54.456Z,100965.09
2023-05-10T21:29:28.446Z,100963.59
2023-05-10T21:32:07.908Z,100965.63
2023-05-10T21:34:40.963Z,100961.44
2023-05-10T21:37:16.720Z,100956.22
2023-05-10T21:39:52.334Z,100967.25
2023-05-10T21:42:27.032Z,100970.31
2023-05-10T21:45:23.635Z,100978.44
2023-05-10T21:47:57.832Z,100969.66
2023-05-10T21:50:30.852Z,100975.94
2023-05-10T21:53:07.246Z,100968.63
2023-05-10T21:55:43.302Z,100971.53
2023-05-10T21:58:39.469Z,100967.13
2023-05-10T22:01:33.254Z,100973.22
2023-05-10T22:04:31.023Z,100972.00
2023-05-10T22:07:05.798Z,100976.38
2023-05-10T22:09:44.518Z,100977.03
2023-05-10T22:12:17.672Z,100969.38
2023-05-10T22:14:59.611Z,100979.84
2023-05-10T22:17:42.740Z,100979.44
2023-05-10T22:20:16.208Z,100982.41
2023-05-10T22:22:49.200Z,100976.81
2023-05-10T22:25:29.792Z,100980.00
2023-05-10T22:28:03.346Z,100987.94
2023-05-10T22:30:36.997Z,100978.75
2023-05-10T22:33:11.397Z,100988.38
2023-05-10T22:35:48.643Z,100991.72
2023-05-10T22:38:24.829Z,100986.31
2023-05-10T22:41:01.014Z,100984.09
2023-05-10T22:43:37.351Z,100984.28
2023-05-10T22:46:12.519Z,100984.09
2023-05-10T22:48:46.420Z,100984.09
2023-05-10T22:51:20.152Z,100981.56
2023-05-10T22:53:55.172Z,100984.09
2023-05-10T22:56:36.661Z,100994.72
2023-05-10T22:59:10.482Z,100987.63
2023-05-10T23:01:45.571Z,100985.47
2023-05-10T23:04:17.722Z,100992.78
2023-05-10T23:06:51.930Z,100988.13
2023-05-10T23:09:27.034Z,100989.97
2023-05-10T23:12:04.694Z,100983.91
2023-05-10T23:14:42.162Z,100989.16
2023-05-10T23:17:14.934Z,100987.66
2023-05-10T23:19:47.194Z,100989.72
2023-05-10T23:22:20.777Z,100990.09
2023-05-10T23:24:53.170Z,100989.47
2023-05-10T23:27:42.717Z,100990.66
2023-05-10T23:30:23.865Z,100993.06
2023-05-10T23:36:15.930Z,100998.16
2023-05-10T23:38:53.497Z,100996.00
2023-05-10T23:41:29.153Z,100996.72
2023-05-10T23:44:10.374Z,101000.16
2023-05-10T23:46:45.928Z,100995.47
2023-05-10T23:49:31.214Z,100995.22
2023-05-10T23:52:03.892Z,100990.91
2023-05-10T23:54:39.121Z,100993.31
2023-05-10T23:57:11.539Z,100988.84
